Terminal Aerodrome Forecast
Issued by NWS Portland, OR

Home | Current Version | Previous Version | Text Only | Print | Product List | Glossary On
Versions: 1 2 3 4 5 6 7 8 9 10 11 12 13
000
FTUS46 KPQR 271124
TAFEUG
TAF
KEUG 271124Z 2712/2812 25005KT P6SM SCT012
     FM271400 27005KT P6SM OVC015
     FM271900 36006KT P6SM BKN025
     FM272100 36008KT P6SM SKC
     FM280500 36003KT P6SM SKC=

USA.gov is the U.S. government's official web portal to all federal, state and local government web resources and services.